createdAt,value
2018-04-27T00:05:09.581Z,25.44
2018-04-27T00:11:00.213Z,27.92
2018-04-27T00:16:50.881Z,35.4
2018-04-27T00:22:41.569Z,24.31
2018-04-27T00:28:32.281Z,23.48
2018-04-27T00:34:22.990Z,24.96
2018-04-27T00:40:13.651Z,26.27
2018-04-27T00:46:04.268Z,23.74
2018-04-27T00:51:54.971Z,19.02
2018-04-27T00:57:45.665Z,20.35
2018-04-27T01:03:36.332Z,15.22
2018-04-27T01:09:27.010Z,18
2018-04-27T01:15:17.687Z,16.86
2018-04-27T01:21:08.322Z,14.24
2018-04-27T01:26:59.106Z,21.79
2018-04-27T01:32:49.660Z,17.22
2018-04-27T01:38:40.324Z,20.64
2018-04-27T01:44:31.037Z,14.35
2018-04-27T01:50:21.697Z,17.03
2018-04-27T01:56:12.365Z,16.3
2018-04-27T02:02:03.102Z,17.31
2018-04-27T02:07:53.721Z,16.72
2018-04-27T02:13:44.382Z,19.95
2018-04-27T02:19:35.054Z,18.82
2018-04-27T02:25:25.749Z,17.34
2018-04-27T02:31:16.402Z,18.87
2018-04-27T02:37:07.067Z,19.52
2018-04-27T02:42:57.766Z,19.31
2018-04-27T02:48:48.371Z,30.68
2018-04-27T02:54:39.077Z,32.47
2018-04-27T03:00:29.723Z,26.54
2018-04-27T03:06:20.376Z,27.02
2018-04-27T03:12:11.044Z,25.93
2018-04-27T03:18:01.725Z,26.28
2018-04-27T03:23:52.481Z,22.29
2018-04-27T03:29:43.060Z,21.35
2018-04-27T03:35:33.712Z,25.14
2018-04-27T03:41:24.433Z,31.95
2018-04-27T03:47:15.040Z,31.24
2018-04-27T03:53:05.698Z,28.86
2018-04-27T03:58:56.339Z,26.93
2018-04-27T04:04:47.011Z,21.23
2018-04-27T04:10:37.661Z,19.01
2018-04-27T04:16:28.389Z,19.52
2018-04-27T04:22:19.030Z,20.31
2018-04-27T04:28:09.704Z,26.19
2018-04-27T04:34:01.137Z,25.66
2018-04-27T04:39:51.057Z,23.7
2018-04-27T04:45:41.678Z,19.55
2018-04-27T04:51:32.339Z,20.46
2018-04-27T04:57:23.015Z,17.13
2018-04-27T05:03:13.647Z,24.17
2018-04-27T05:09:04.365Z,40.09
2018-04-27T05:14:55.011Z,30.68
2018-04-27T05:20:45.633Z,46.16
2018-04-27T05:26:36.295Z,44.47
2018-04-27T05:32:26.953Z,39.53
2018-04-27T05:38:17.654Z,45.49
2018-04-27T05:44:08.316Z,37.7
2018-04-27T05:49:59.034Z,37.21
2018-04-27T05:55:49.624Z,36.42
2018-04-27T06:01:40.288Z,40.65
2018-04-27T06:07:30.986Z,41.11
2018-04-27T06:13:21.708Z,48.42
2018-04-27T06:19:12.323Z,51.81
2018-04-27T06:25:02.986Z,51.74
2018-04-27T06:30:53.637Z,44.41
2018-04-27T06:36:44.331Z,61.71
2018-04-27T06:42:35.005Z,38.61
2018-04-27T06:48:25.649Z,37.86
2018-04-27T06:54:16.363Z,38.69
2018-04-27T07:00:07.040Z,35.86
2018-04-27T07:05:57.790Z,33.09
2018-04-27T07:11:48.406Z,30.64
2018-04-27T07:17:39.130Z,33.19
2018-04-27T07:23:29.815Z,35.63
2018-04-27T07:29:20.502Z,35.14
2018-04-27T07:35:11.137Z,34.1
2018-04-27T07:41:01.862Z,33.9
2018-04-27T07:46:52.525Z,33.71
2018-04-27T07:52:43.203Z,25.95
2018-04-27T07:58:33.937Z,26.77
2018-04-27T08:04:24.803Z,31.86
2018-04-27T08:10:15.314Z,32
2018-04-27T08:16:05.992Z,28.87
2018-04-27T08:21:56.691Z,25.95
2018-04-27T08:27:47.430Z,25.81
2018-04-27T08:33:38.073Z,24.5
2018-04-27T08:39:28.822Z,33.49
2018-04-27T08:45:19.498Z,20.6
2018-04-27T08:51:10.228Z,22.9
2018-04-27T08:57:00.900Z,26.5
2018-04-27T09:02:51.759Z,18.75
2018-04-27T09:08:42.332Z,19.37
2018-04-27T09:14:33.074Z,19.65
2018-04-27T09:20:23.760Z,20.64
2018-04-27T09:26:14.525Z,24.4
2018-04-27T09:32:05.276Z,20.67
2018-04-27T09:37:55.933Z,20.12
2018-04-27T09:43:46.655Z,19.61
2018-04-27T09:49:37.410Z,16.77
2018-04-27T09:55:28.099Z,14.95
2018-04-27T10:01:18.800Z,21.5
2018-04-27T10:07:09.541Z,12.61
2018-04-27T10:13:00.239Z,20.71
2018-04-27T10:18:50.964Z,14.34
2018-04-27T10:24:41.707Z,15.74
2018-04-27T10:30:32.419Z,16.51
2018-04-27T10:36:23.145Z,13.03
2018-04-27T10:42:13.864Z,13.13
2018-04-27T10:48:04.649Z,14.81
2018-04-27T10:53:55.438Z,19.55
2018-04-27T10:59:46.143Z,17.21
2018-04-27T11:05:36.881Z,11.4
2018-04-27T11:11:27.596Z,9.76
2018-04-27T11:17:18.335Z,12.27
2018-04-27T11:23:09.089Z,12.56
2018-04-27T11:28:59.796Z,24.11
2018-04-27T11:34:50.559Z,89.78
2018-04-27T11:40:41.317Z,9.84
2018-04-27T11:46:32.028Z,12.29
2018-04-27T11:52:22.793Z,8.9
2018-04-27T11:58:13.520Z,12.45
2018-04-27T12:04:04.322Z,13.79
2018-04-27T12:09:55.135Z,8.45
2018-04-27T12:15:45.900Z,12.44
2018-04-27T12:21:36.757Z,9.34
2018-04-27T12:27:27.567Z,8.2
2018-04-27T12:33:18.363Z,11.73
2018-04-27T12:39:09.198Z,12.69
2018-04-27T12:45:00.236Z,9.05
2018-04-27T12:50:50.879Z,10.86
2018-04-27T12:56:41.761Z,8.14
2018-04-27T13:02:32.585Z,13.42
2018-04-27T13:08:23.414Z,13.29
2018-04-27T13:14:14.297Z,7.61
2018-04-27T13:20:05.123Z,10.88
2018-04-27T13:25:56.015Z,12.56
2018-04-27T13:31:46.788Z,7.9
2018-04-27T13:37:37.665Z,7.4
2018-04-27T13:43:28.507Z,8.83
2018-04-27T13:49:19.375Z,12.15
2018-04-27T13:55:10.259Z,8.78
2018-04-27T14:01:01.077Z,10.76
2018-04-27T14:06:52.008Z,10.84
2018-04-27T14:12:42.842Z,13.24
2018-04-27T14:18:33.663Z,6.6
2018-04-27T14:24:24.453Z,9.11
2018-04-27T14:30:15.216Z,9.95
2018-04-27T14:36:06.050Z,11.21
2018-04-27T14:41:56.816Z,9.88
2018-04-27T14:47:47.601Z,10.24
2018-04-27T14:53:38.449Z,12.1
2018-04-27T14:59:29.139Z,10.09
2018-04-27T15:05:19.915Z,14.78
2018-04-27T15:11:10.743Z,9.92
2018-04-27T15:17:01.488Z,11.61
2018-04-27T15:22:52.174Z,13.09
2018-04-27T15:28:42.935Z,11.85
2018-04-27T15:34:33.659Z,13.93
2018-04-27T15:40:24.440Z,12.76
2018-04-27T15:46:15.155Z,15.19
2018-04-27T15:52:05.953Z,17.26
2018-04-27T15:57:56.631Z,12.34
2018-04-27T16:03:47.440Z,22.21
2018-04-27T16:09:38.163Z,14.78
2018-04-27T16:15:28.894Z,15.41
2018-04-27T16:21:19.708Z,12.92
2018-04-27T16:27:10.393Z,19.25
2018-04-27T16:33:01.115Z,11.56
2018-04-27T16:38:51.900Z,13.66
2018-04-27T16:44:42.571Z,16.85
2018-04-27T16:50:33.344Z,19.97
2018-04-27T16:56:24.050Z,16.25
2018-04-27T17:02:14.858Z,10.73
2018-04-27T17:08:05.554Z,15.07
2018-04-27T17:13:56.298Z,14.62
2018-04-27T17:19:47.041Z,13.03
2018-04-27T17:25:37.825Z,14.55
2018-04-27T17:31:28.504Z,13.82
2018-04-27T17:37:19.239Z,11.7
2018-04-27T17:43:09.979Z,18.54
2018-04-27T17:49:00.695Z,12.13
2018-04-27T17:54:51.471Z,13.45
2018-04-27T18:00:42.190Z,15.43
2018-04-27T18:06:32.954Z,16.43
2018-04-27T18:12:23.646Z,11.69
2018-04-27T18:18:14.480Z,13.55
2018-04-27T18:24:05.109Z,20.48
2018-04-27T18:29:55.887Z,15.94
2018-04-27T18:35:46.578Z,11.93
2018-04-27T18:41:37.289Z,6.46
2018-04-27T18:47:28.032Z,13.11
2018-04-27T18:53:18.724Z,16.15
2018-04-27T18:59:09.460Z,8.98
2018-04-27T19:05:00.195Z,13.03
2018-04-27T19:10:50.886Z,9.76
2018-04-27T19:16:41.636Z,19.07
2018-04-27T19:22:32.341Z,13.69
2018-04-27T19:28:23.106Z,9.35
2018-04-27T19:34:13.793Z,13.4
2018-04-27T19:40:04.476Z,12.99
2018-04-27T19:45:55.252Z,9.24
2018-04-27T19:51:45.906Z,13.26
2018-04-27T19:57:36.637Z,17.23
2018-04-27T20:03:27.339Z,10.68
2018-04-27T20:09:18.022Z,8.81
2018-04-27T20:15:08.752Z,8
2018-04-27T20:20:59.532Z,9.36
2018-04-27T20:26:50.161Z,10.5
2018-04-27T20:32:40.960Z,9.86
2018-04-27T20:38:31.613Z,15.71
2018-04-27T20:44:22.279Z,9.37
2018-04-27T20:50:13.091Z,7.96
2018-04-27T20:56:03.717Z,10.88
2018-04-27T21:01:54.440Z,10.7
2018-04-27T21:07:45.100Z,11.19
2018-04-27T21:13:35.781Z,11.46
2018-04-27T21:19:26.513Z,12.02
2018-04-27T21:25:17.203Z,8.49
2018-04-27T21:31:07.897Z,6.59
2018-04-27T21:36:58.615Z,9.27
2018-04-27T21:42:49.391Z,10.41
2018-04-27T21:48:39.996Z,17.47
2018-04-27T21:54:30.715Z,12.83
2018-04-27T22:00:21.386Z,16.66
2018-04-27T22:06:12.100Z,14.07
2018-04-27T22:12:02.839Z,9.47
2018-04-27T22:17:53.465Z,12.28
2018-04-27T22:23:44.198Z,14.45
2018-04-27T22:29:34.892Z,13.08
2018-04-27T22:35:25.747Z,16.07
2018-04-27T22:41:16.412Z,16.88
2018-04-27T22:52:57.803Z,16.44
2018-04-27T22:58:48.498Z,14.2
2018-04-27T23:04:39.203Z,13.82
2018-04-27T23:10:29.902Z,15.4
2018-04-27T23:16:20.599Z,14.01
2018-04-27T23:22:11.287Z,16.25
2018-04-27T23:28:01.943Z,16.59
2018-04-27T23:33:52.627Z,13.16
2018-04-27T23:39:43.289Z,15.8
2018-04-27T23:45:33.986Z,19.38
2018-04-27T23:51:24.705Z,9.92
2018-04-27T23:57:15.313Z,8.42
